Observations for SYDNEY INTL AIRPORT, Australia (YSSY)

YSSY 280500Z 33010KT 9999 -RA FEW040 BKN070 BKN100 14/12 Q1021 NOSIG
YSSY 280400Z 34009KT 9999 -RA FEW040 SCT055 BKN070 14/12 Q1021 NOSIG
YSSY 280330Z 33009KT 9999 -RA FEW040 SCT070 BKN080 15/11 Q1021 NOSIG
YSSY 280300Z 31009KT 9999 -RA FEW040 BKN070 BKN120 15/10 Q1021 NOSIG
YSSY 280230Z 29009KT 9999 -RA FEW030 SCT080 BKN120 16/09 Q1021 NOSIG
YSSY 280200Z 30007KT CAVOK 16/11 Q1021 NOSIG
YSSY 280130Z 29007KT CAVOK 15/09 Q1021 NOSIG
YSSY 280100Z 29009KT CAVOK 15/09 Q1022 NOSIG
YSSY 280030Z 30010KT CAVOK 15/09 Q1022 NOSIG
YSSY 280000Z 31009KT CAVOK 14/09 Q1023 NOSIG
YSSY 272330Z 28008KT CAVOK 13/09 Q1023 NOSIG
YSSY 272300Z 29006KT CAVOK 14/10 Q1022 NOSIG
YSSY 272230Z 29005KT CAVOK 13/09 Q1022 NOSIG
YSSY 272200Z 30005KT CAVOK 13/09 Q1022 NOSIG
YSSY 272130Z 33005KT CAVOK 14/09 Q1022 NOSIG
YSSY 272100Z 31006KT CAVOK 13/10 Q1022 NOSIG
YSSY 272030Z 32008KT CAVOK 12/09 Q1022 NOSIG
YSSY 272000Z 35006KT CAVOK 12/09 Q1022 NOSIG
YSSY 271930Z 32006KT 9999 FEW020 SCT070 BKN200 12/09 Q1022 NOSIG
YSSY 271900Z 35005KT 9999 FEW020 BKN070 12/10 Q1022 NOSIG   
YSSY 271800Z 35006KT 9999 FEW020 BKN070 11/09 Q1023 NOSIG   
YSSY 271730Z 32006KT 9999 FEW020 SCT080 BKN110 11/09 Q1023 NOSIG
YSSY 271700Z 34006KT 9999 FEW020 SCT080 BKN110 11/09 Q1023 NOSIG
YSSY 271630Z 33008KT 9999 FEW020 SCT080 BKN110 11/09 Q1023 NOSIG
YSSY 271600Z 34008KT 9999 FEW020 SCT080 BKN110 12/09 Q1023 NOSIG
YSSY 271530Z 35006KT 9999 FEW020 BKN120 12/09 Q1023 NOSIG   
YSSY 271500Z 33005KT 9999 FEW020 BKN120 11/09 Q1023 NOSIG   
YSSY 271430Z 31005KT 9999 FEW030 BKN130 12/09 Q1023 NOSIG   
YSSY 271400Z 33009KT 9999 FEW030 BKN130 12/10 Q1024 NOSIG   
YSSY 271330Z 34008KT 9999 FEW030 SCT060 BKN110 12/10 Q1024 NOSIG
YSSY 271300Z 33006KT 9999 FEW030 BKN140 13/10 Q1024 NOSIG   
YSSY 271230Z 32005KT 9999 FEW030 BKN180 13/10 Q1024 NOSIG   
YSSY 271200Z 31006KT 9999 FEW030 BKN180 13/11 Q1024 NOSIG   
YSSY 271130Z 34004KT 9999 FEW020 BKN150 14/11 Q1024 NOSIG   
YSSY 271100Z 32004KT 9999 FEW020 BKN150 14/11 Q1024 NOSIG   
YSSY 271030Z 28005KT 9999 FEW030 BKN180 14/11 Q1024 NOSIG   
YSSY 271000Z 28004KT 9999 FEW025 BKN160 14/11 Q1024 NOSIG   
YSSY 270930Z 26006KT 9999 FEW020 SCT160 14/11 Q1024 NOSIG   
YSSY 270900Z 25005KT 9999 FEW025 BKN160 14/11 Q1024 NOSIG   
YSSY 270830Z 23005KT 9999 FEW025 SCT170 BKN200 14/11 Q1024 NOSIG
YSSY 270800Z 23004KT 9999 FEW025 BKN200 15/12 Q1024 NOSIG   
YSSY 270730Z 19005KT 9999 FEW025 BKN200 15/12 Q1023 NOSIG   
YSSY 270700Z 17005KT 9999 FEW025 BKN175 BKN220 15/12 Q1023 NOSIG
YSSY 270630Z 19004KT 9999 FEW025 BKN175 BKN220 15/11 Q1024 NOSIG
YSSY 270600Z 18005KT 9999 FEW025 SCT180 BKN220 15/11 Q1024 NOSIG
YSSY 270530Z 18006KT 9999 FEW025 BKN180 BKN220 16/11 Q1024 NOSIG
YSSY 270500Z 18005KT 9999 FEW020 BKN180 BKN250 16/11 Q1024 NOSIG
YSSY 270430Z 20005KT 9999 FEW025 BKN180 BKN250 16/11 Q1024 NOSIG